Latest Weather Observations for Murganella Airstrip

IDD60801

Issued at 7:11 pm CST Sunday 19 August 2018 (issued every 10 minutes, with the page automatically refreshed every 10 minutes)

About weather observations | Map of weather stations | Latest weather observations for NT | Other Formats
Station Details ID: 014309 Name: MURGANELLA AIRSTRIP Lat: -11.55 Lon: 132.93 Height: 9.5 m
Data from the previous 72 hours. | See also: Recent months at Murganella Airstrip
Date/Time
CST
Temp
°C
App
Temp
°C
Dew
Point
°C
Rel
Hum
%
Delta-T
°C
Wind Press
QNH
hPa
Press
MSL
hPa
Rain since
9am
mm
Dir  Spd
km/h
Gust
km/h
Spd
kts
Gust
kts
19/07:00pm 25.4 28.8 20.9 76 3.0 ENE 4 9 2 5 1012.8 1012.8 0.0
19/06:30pm 26.1 28.2 20.2 70 3.8 ENE 9 17 5 9 1012.5 1012.5 0.0
19/06:00pm 27.1 28.7 19.2 62 5.1 NE 9 20 5 11 1012.3 1012.3 0.0
19/05:30pm 28.0 29.3 19.2 58 5.7 NE 11 19 6 10 1012.2 1012.2 0.0
19/05:00pm 28.3 29.3 19.5 59 5.7 ENE 13 22 7 12 1012.0 1012.0 0.0
19/04:30pm 29.1 29.8 18.8 53 6.6 ENE 13 24 7 13 1011.9 1011.9 0.0
19/04:00pm 29.1 30.0 18.5 52 6.8 ENE 11 22 6 12 1011.9 1011.9 0.0
19/03:30pm 30.0 30.0 18.1 49 7.6 ENE 15 28 8 15 1011.8 1011.7 0.0
19/03:00pm 30.1 29.8 18.2 49 7.6 ENE 17 30 9 16 1012.2 1012.2 0.0
19/02:30pm 29.9 29.6 18.3 49 7.4 ENE 17 28 9 15 1012.5 1012.5 0.0
19/02:00pm 30.3 29.5 18.1 48 7.8 E 19 33 10 18 1012.7 1012.7 0.0
19/01:30pm 30.0 29.8 18.4 49 7.5 E 17 28 9 15 1013.0 1013.0 0.0
19/01:00pm 30.7 31.2 18.4 47 7.9 ENE 13 22 7 12 1013.4 1013.4 0.0
19/12:30pm 31.1 31.5 18.1 46 8.4 E 13 26 7 14 1013.7 1013.7 0.0
19/12:00pm 29.9 30.5 17.7 48 7.8 E 11 22 6 12 1014.3 1014.3 0.0
19/11:30am 29.9 30.4 18.3 49 7.4 E 13 22 7 12 1014.5 1014.5 0.0
19/11:00am 29.8 30.4 18.6 51 7.2 E 13 22 7 12 1014.8 1014.8 0.0
19/10:30am 28.8 29.4 18.6 54 6.6 E 13 22 7 12 1015.0 1015.0 0.0
19/10:00am 28.7 30.2 18.8 55 6.4 E 9 17 5 9 1015.1 1015.1 0.0
19/09:30am 26.6 29.4 20.4 69 4.1 ESE 6 9 3 5 1015.1 1015.1 0.0
19/09:00am 25.0 27.8 20.5 76 2.9 SSE 6 11 3 6 1015.1 1015.1 0.0
19/08:30am 23.6 26.5 20.7 84 1.9 SE 6 9 3 5 1015.0 1015.0 0.0
19/08:00am 22.2 25.9 21.5 96 0.5 SSE 4 6 2 3 1014.8 1014.8 0.0
19/07:30am 19.4 22.7 19.1 98 0.2 CALM 0 0 0 0 1014.4 1014.4 0.0
19/07:00am 18.8 21.7 18.3 97 0.3 CALM 0 0 0 0 1014.3 1014.3 0.0
19/06:30am 19.4 21.9 19.1 98 0.2 SSE 4 6 2 3 1013.9 1013.9 0.0
19/06:00am 19.7 22.8 19.4 98 0.2 SE 2 2 1 1 1013.7 1013.7 0.0
19/05:30am 19.4 21.9 19.1 98 0.2 SSE 4 6 2 3 1013.4 1013.4 0.0
19/05:00am 19.4 22.3 19.1 98 0.2 SSE 2 6 1 3 1013.2 1013.2 0.0
19/04:30am 19.1 21.8 18.6 97 0.3 SSE 2 4 1 2 1013.0 1013.0 0.0
19/04:00am 18.6 21.4 17.9 96 0.4 CALM 0 0 0 0 1012.8 1012.8 0.0
19/03:30am 18.7 21.5 18.0 96 0.4 CALM 0 0 0 0 1013.0 1013.0 0.0
19/03:00am 18.5 21.3 17.9 96 0.4 CALM 0 0 0 0 1013.2 1013.2 0.0
19/02:30am 18.7 21.5 18.0 96 0.4 CALM 0 0 0 0 1013.5 1013.5 0.0
19/02:00am 18.9 21.8 18.2 96 0.4 CALM 0 0 0 0 1014.0 1014.0 0.0
19/01:30am 18.3 20.9 17.5 95 0.5 CALM 0 0 0 0 1014.1 1014.1 0.0
19/01:00am 18.3 20.9 17.5 95 0.5 CALM 0 0 0 0 1014.1 1014.1 0.0
19/12:30am 18.5 21.2 17.7 95 0.5 CALM 0 0 0 0 1014.3 1014.3 0.0
19/12:00am 18.6 21.2 17.6 94 0.6 CALM 0 0 0 0 1014.3 1014.3 0.0
 
Date/Time
CST
Temp
°C
App
Temp
°C
Dew
Point
°C
Rel
Hum
%
Delta-T
°C
Wind Press
QNH
hPa
Press
MSL
hPa
Rain since
9am
mm
Dir  Spd
km/h
Gust
km/h
Spd
kts
Gust
kts
18/11:30pm 18.8 21.5 17.8 94 0.6 CALM 0 0 0 0 1014.2 1014.2 0.0
18/11:00pm 19.1 21.9 17.9 93 0.7 CALM 0 0 0 0 1014.1 1014.1 0.0
18/10:30pm 19.5 22.4 18.2 92 0.8 CALM 0 0 0 0 1013.9 1013.9 0.0
18/10:00pm 19.8 22.7 18.1 90 1.1 CALM 0 0 0 0 1013.8 1013.8 0.0
18/09:30pm 20.2 23.1 18.3 89 1.2 CALM 0 0 0 0 1013.7 1013.7 0.0
18/09:00pm 20.7 23.8 18.6 88 1.3 CALM 0 0 0 0 1013.5 1013.5 0.0
18/08:30pm 21.5 24.5 18.5 83 1.9 CALM 0 0 0 0 1013.2 1013.2 0.0
18/08:00pm 22.3 25.4 18.7 80 2.3 CALM 0 0 0 0 1012.8 1012.8 0.0
18/07:30pm 23.8 27.2 19.3 76 2.9 CALM 0 4 0 2 1012.5 1012.5 0.0
18/07:00pm 24.4 27.3 19.0 72 3.4 NNE 2 6 1 3 1012.2 1012.2 0.0
18/06:30pm 25.3 27.2 18.5 66 4.3 NE 6 11 3 6 1011.9 1011.9 0.0
18/06:00pm 26.4 27.7 17.5 58 5.6 NE 7 13 4 7 1011.6 1011.5 0.0
18/05:30pm 27.3 28.6 17.5 55 6.2 NE 7 9 4 5 1011.2 1011.1 0.0
18/05:00pm 28.2 28.9 17.1 51 7.0 NE 9 15 5 8 1011.0 1010.9 0.0
18/04:30pm 28.8 29.4 16.7 48 7.6 ENE 9 19 5 10 1010.7 1010.6 0.0
18/04:00pm 28.9 29.7 17.4 49 7.3 ENE 9 17 5 9 1010.8 1010.7 0.0
18/03:30pm 29.0 29.9 18.4 52 6.8 NE 11 20 6 11 1010.8 1010.7 0.0
18/03:00pm 29.5 30.6 18.9 53 6.9 ENE 11 20 6 11 1010.9 1010.8 0.0
18/02:30pm 30.9 31.4 18.3 47 8.1 NE 13 22 7 12 1011.0 1010.9 0.0
18/02:00pm 31.0 30.7 17.3 43 8.7 ENE 15 26 8 14 1011.3 1011.2 0.0
18/01:30pm 31.6 32.3 16.0 39 9.7 ENE 7 15 4 8 1011.5 1011.4 0.0
18/01:00pm 32.4 33.0 16.7 39 9.9 ESE 9 17 5 9 1012.0 1012.0 0.0
18/12:30pm 32.0 32.5 15.5 37 10.2 SE 7 13 4 7 1012.6 1012.6 0.0
18/12:00pm 31.1 31.4 15.1 38 9.8 E 7 11 4 6 1013.1 1013.1 0.0
18/11:30am 30.9 32.3 16.5 42 9.0 ESE 4 9 2 5 1013.6 1013.6 0.0
18/11:00am 30.0 31.8 18.4 49 7.5 ESE 6 9 3 5 1014.2 1014.2 0.0
18/10:30am 28.9 30.9 18.7 54 6.6 SSE 6 9 3 5 1014.7 1014.7 0.0
18/10:00am 27.7 31.0 20.8 66 4.6 ESE 4 9 2 5 1014.9 1014.9 0.0
18/09:30am 26.6 30.7 21.6 74 3.3 SE 2 7 1 4 1015.0 1015.0 0.0
18/09:00am 24.5 27.9 21.0 81 2.3 SE 4 7 2 4 1014.9 1014.9 0.0
18/08:30am 22.8 25.6 20.5 87 1.5 SE 6 7 3 4 1014.9 1014.9 0.0
18/08:00am 21.2 25.2 20.5 96 0.5 CALM 0 4 0 2 1014.7 1014.7 0.0
18/07:30am 18.0 20.7 17.7 98 0.2 CALM 0 0 0 0 1014.5 1014.5 0.0
18/07:00am 17.1 19.3 16.5 96 0.4 CALM 0 0 0 0 1014.1 1014.1 0.0
18/06:30am 17.5 19.8 16.7 95 0.5 CALM 0 0 0 0 1013.8 1013.8 0.0
18/06:00am 17.9 20.3 17.1 95 0.5 CALM 0 0 0 0 1013.4 1013.4 0.0
18/05:30am 18.4 21.1 17.8 96 0.4 CALM 0 0 0 0 1013.3 1013.3 0.0
18/05:00am 19.1 22.1 18.4 96 0.4 CALM 0 0 0 0 1013.1 1013.1 0.0
18/04:30am 19.6 22.1 19.1 97 0.3 SSE 4 6 2 3 1013.0 1013.0 0.0
18/04:00am 19.4 22.3 19.1 98 0.2 SSE 2 4 1 2 1012.9 1012.9 0.0
18/03:30am 18.4 21.2 17.9 97 0.3 CALM 0 4 0 2 1013.0 1013.0 0.0
18/03:00am 17.6 19.6 17.0 96 0.4 S 2 4 1 2 1013.0 1013.0 0.0
18/02:30am 17.4 19.6 16.6 95 0.5 CALM 0 0 0 0 1013.1 1013.1 0.0
18/02:00am 17.3 19.5 16.5 95 0.5 CALM 0 0 0 0 1013.1 1013.1 0.0
18/01:30am 17.3 19.5 16.5 95 0.5 CALM 0 0 0 0 1013.2 1013.2 0.0
18/01:00am 17.2 19.4 16.4 95 0.5 CALM 0 0 0 0 1013.4 1013.4 0.0
18/12:30am 17.3 19.4 16.3 94 0.6 CALM 0 0 0 0 1013.5 1013.5 0.0
18/12:00am 17.5 19.7 16.4 93 0.7 CALM 0 0 0 0 1013.4 1013.4 0.0
 
Date/Time
CST
Temp
°C
App
Temp
°C
Dew
Point
°C
Rel
Hum
%
Delta-T
°C
Wind Press
QNH
hPa
Press
MSL
hPa
Rain since
9am
mm
Dir  Spd
km/h
Gust
km/h
Spd
kts
Gust
kts
17/11:30pm 17.7 19.9 16.6 93 0.7 CALM 0 0 0 0 1013.1 1013.1 0.0
17/11:00pm 17.9 20.2 16.8 93 0.7 CALM 0 0 0 0 1013.1 1013.1 0.0
17/10:30pm 18.2 20.6 16.9 92 0.8 CALM 0 0 0 0 1013.0 1013.0 0.0
17/10:00pm 18.5 20.8 16.8 90 1.0 CALM 0 0 0 0 1013.0 1013.0 0.0
17/09:30pm 18.8 21.1 16.8 88 1.2 CALM 0 0 0 0 1012.9 1012.9 0.0
17/09:00pm 19.2 21.5 16.8 86 1.4 CALM 0 0 0 0 1012.7 1012.7 0.0
17/08:30pm 19.9 22.3 16.9 83 1.8 CALM 0 0 0 0 1012.3 1012.3 0.0
17/08:00pm 20.6 23.0 17.0 80 2.2 CALM 0 0 0 0 1011.8 1011.7 0.0
17/07:30pm 21.6 23.8 16.6 73 3.0 CALM 0 0 0 0 1011.4 1011.3 0.0
17/07:00pm 23.2 25.4 16.5 66 4.1 CALM 0 2 0 1 1010.9 1010.8 0.0
17/06:30pm 25.0 26.5 16.7 60 5.1 NNE 4 6 2 3 1010.5 1010.4 0.0
17/06:00pm 26.4 27.2 16.3 53 6.2 NE 7 11 4 6 1010.3 1010.2 0.0
17/05:30pm 27.3 28.0 16.0 50 7.0 NNE 7 13 4 7 1009.8 1009.7 0.0
17/05:00pm 27.7 27.4 15.4 47 7.5 NNE 11 17 6 9 1009.3 1009.2 0.0
17/04:30pm 28.5 27.4 13.2 39 9.1 NE 11 19 6 10 1009.1 1009.0 0.0
17/04:00pm 28.9 27.8 13.2 38 9.3 NE 11 19 6 10 1009.1 1009.0 0.0
17/03:30pm 29.7 28.7 13.5 37 9.7 NE 11 20 6 11 1009.1 1009.0 0.0
17/03:00pm 30.0 28.8 12.9 35 10.1 NNE 11 19 6 10 1009.2 1009.1 0.0
17/02:30pm 30.9 30.2 13.2 34 10.6 ENE 9 19 5 10 1009.4 1009.3 0.0
17/02:00pm 30.9 29.4 11.8 31 11.2 ENE 11 20 6 11 1009.8 1009.7 0.0
17/01:30pm 30.8 29.4 12.2 32 10.9 E 11 19 6 10 1010.2 1010.1 0.0
17/01:00pm 31.1 30.2 12.5 32 11.0 E 9 15 5 8 1010.6 1010.5 0.0
17/12:30pm 30.6 29.0 11.5 30 11.1 E 11 19 6 10 1011.0 1010.9 0.0
17/12:00pm 29.9 27.8 9.9 29 11.3 E 11 20 6 11 1011.5 1011.4 0.0
17/11:30am 30.2 28.1 9.7 28 11.5 ESE 11 30 6 16 1012.1 1012.1 0.0
17/11:00am 29.6 28.7 11.2 32 10.6 E 7 13 4 7 1012.5 1012.5 0.0
17/10:30am 28.8 28.0 11.8 35 9.8 ESE 7 15 4 8 1012.9 1012.9 0.0
17/10:00am 27.5 26.8 13.1 41 8.5 E 9 15 5 8 1013.2 1013.2 0.0
17/09:30am 26.6 27.2 15.3 50 6.9 E 6 13 3 7 1013.2 1013.2 0.0
17/09:00am 24.2 26.6 18.8 72 3.4 SE 4 6 2 3 1013.1 1013.1 0.0
17/08:30am 22.6 25.7 19.4 82 2.0 SE 2 4 1 2 1012.9 1012.9 0.0
17/08:00am 20.7 24.0 19.9 95 0.5 SE 2 6 1 3 1012.8 1012.8 0.0
17/07:30am 18.5 20.6 18.2 98 0.2 SSE 4 6 2 3 1012.8 1012.8 0.0
17/07:00am 17.4 19.4 16.9 97 0.3 SSE 2 2 1 1 1012.6 1012.6 0.0
17/06:30am 17.8 19.6 17.3 97 0.3 SSE 4 6 2 3 1012.3 1012.3 0.0
17/06:00am 17.6 19.3 17.1 97 0.3 SSE 4 4 2 2 1012.1 1012.1 0.0
17/05:30am 18.0 20.7 17.7 98 0.2 CALM 0 0 0 0 1011.8 1011.7 0.0
17/05:00am 17.8 19.6 17.3 97 0.3 S 4 6 2 3 1011.7 1011.6 0.0
17/04:30am 17.6 20.0 17.1 97 0.3 CALM 0 0 0 0 1011.7 1011.6 0.0
17/04:00am 17.3 19.6 16.7 96 0.4 CALM 0 0 0 0 1011.7 1011.6 0.0
17/03:30am 17.5 19.9 17.0 97 0.3 CALM 0 0 0 0 1011.8 1011.7 0.0
17/03:00am 17.5 19.9 17.0 97 0.3 CALM 0 0 0 0 1011.8 1011.7 0.0
17/02:30am 17.5 19.9 17.0 97 0.3 CALM 0 0 0 0 1011.9 1011.9 0.0
17/02:00am 17.4 19.7 16.8 96 0.4 CALM 0 0 0 0 1012.1 1012.1 0.0
17/01:30am 17.6 20.0 17.0 96 0.4 CALM 0 0 0 0 1012.2 1012.2 0.0
17/01:00am 17.7 20.1 16.9 95 0.5 CALM 0 0 0 0 1012.5 1012.5 0.0
17/12:30am 17.8 20.2 17.0 95 0.5 CALM 0 0 0 0 1012.5 1012.5 0.0
17/12:00am 18.1 20.7 17.5 96 0.4 CALM 0 0 0 0 1012.6 1012.6 0.0
 
Date/Time
CST
Temp
°C
App
Temp
°C
Dew
Point
°C
Rel
Hum
%
Delta-T
°C
Wind Press
QNH
hPa
Press
MSL
hPa
Rain since
9am
mm
Dir  Spd
km/h
Gust
km/h
Spd
kts
Gust
kts
16/11:30pm 18.1 20.6 17.3 95 0.5 CALM 0 0 0 0 1012.6 1012.6 0.0
16/11:00pm 18.3 20.9 17.5 95 0.5 CALM 0 0 0 0 1012.5 1012.5 0.0
16/10:30pm 18.6 21.2 17.6 94 0.6 CALM 0 0 0 0 1012.4 1012.4 0.0
16/10:00pm 18.9 21.6 17.7 93 0.7 CALM 0 0 0 0 1012.4 1012.4 0.0
16/09:30pm 19.4 22.2 17.9 91 0.9 CALM 0 0 0 0 1012.4 1012.4 0.0
16/09:00pm 19.9 22.7 18.0 89 1.2 CALM 0 0 0 0 1012.2 1012.2 0.0
16/08:30pm 20.6 23.4 18.0 85 1.6 CALM 0 0 0 0 1011.9 1011.9 0.0
16/08:00pm 21.5 24.4 18.3 82 2.0 CALM 0 0 0 0 1011.7 1011.6 0.0
16/07:30pm 22.8 25.9 18.6 77 2.6 CALM 0 0 0 0 1011.1 1011.0 0.0

Other Formats:

Comma delimited format used in spreadsheet applications
http://www.bom.gov.au/fwo/IDD60801/IDD60801.94109.axf

JavaScript Object Notation format (JSON) in row-major order
http://www.bom.gov.au/fwo/IDD60801/IDD60801.94109.json